createdAt,value
2022-10-19T06:06:22.759Z,5.50
2022-10-19T06:08:50.764Z,4.18
2022-10-19T06:11:25.319Z,5.05
2022-10-19T06:13:55.613Z,4.22
2022-10-19T06:16:24.141Z,4.38
2022-10-19T06:18:52.109Z,4.22
2022-10-19T06:21:23.692Z,4.50
2022-10-19T06:23:52.495Z,4.50
2022-10-19T06:26:23.091Z,4.57
2022-10-19T06:28:51.043Z,4.85
2022-10-19T06:31:18.707Z,5.68
2022-10-19T06:33:49.216Z,4.43
2022-10-19T06:36:20.409Z,4.80
2022-10-19T06:38:48.641Z,4.40
2022-10-19T06:41:15.803Z,4.72
2022-10-19T06:43:43.664Z,4.70
2022-10-19T06:46:20.230Z,4.63
2022-10-19T06:49:05.424Z,4.78
2022-10-19T06:51:34.227Z,5.70
2022-10-19T06:54:01.355Z,4.95
2022-10-19T06:56:28.556Z,4.80
2022-10-19T06:58:58.556Z,4.53
2022-10-19T07:01:26.100Z,4.82
2022-10-19T07:03:53.801Z,5.28
2022-10-19T07:06:21.486Z,4.95
2022-10-19T07:08:48.717Z,5.10
2022-10-19T07:11:19.134Z,4.75
2022-10-19T07:13:48.933Z,6.22
2022-10-19T07:16:20.634Z,4.63
2022-10-19T07:18:49.979Z,4.78
2022-10-19T07:21:22.907Z,4.57
2022-10-19T07:23:50.478Z,5.57
2022-10-19T07:26:23.505Z,5.50
2022-10-19T07:28:51.391Z,5.60
2022-10-19T07:31:21.660Z,5.78
2022-10-19T07:34:01.022Z,5.80
2022-10-19T07:36:30.582Z,6.25
2022-10-19T07:38:58.017Z,7.13
2022-10-19T07:41:26.409Z,5.47
2022-10-19T07:43:54.007Z,5.68
2022-10-19T07:46:25.509Z,5.93
2022-10-19T07:48:52.950Z,5.40
2022-10-19T08:24:08.324Z,4.30
2022-10-19T08:26:40.195Z,4.97
2022-10-19T09:08:13.119Z,4.68
2022-10-19T17:38:58.597Z,7.37
2022-10-19T17:41:27.040Z,7.53
2022-10-19T17:43:54.577Z,10.82
2022-10-19T17:46:26.395Z,7.47
2022-10-19T17:48:53.783Z,9.50
2022-10-19T17:51:24.453Z,6.82
2022-10-19T18:36:18.014Z,8.38
2022-10-19T18:38:45.025Z,7.50
2022-10-19T18:44:05.135Z,8.40
2022-10-19T18:46:37.232Z,8.20
2022-10-19T18:49:06.951Z,8.07
2022-10-19T18:51:34.088Z,8.57
2022-10-19T18:54:01.111Z,8.50
2022-10-19T18:56:29.498Z,8.70
2022-10-19T18:58:57.084Z,8.48
2022-10-19T19:01:29.400Z,9.00
2022-10-19T19:04:01.374Z,9.45
2022-10-19T19:06:29.897Z,9.30
2022-10-19T19:08:58.733Z,9.73
2022-10-19T19:11:30.702Z,8.88
2022-10-19T19:14:05.151Z,9.15
2022-10-19T19:16:38.042Z,8.68
2022-10-19T19:19:05.962Z,9.10
2022-10-19T19:21:35.824Z,9.52
2022-10-19T19:24:06.224Z,9.10
2022-10-19T19:26:37.747Z,8.73
2022-10-19T19:29:04.854Z,8.82
2022-10-19T19:31:31.868Z,8.23
2022-10-19T19:34:02.924Z,9.70
2022-10-19T19:36:30.099Z,10.00
2022-10-19T19:38:59.096Z,10.05
2022-10-19T19:41:26.257Z,10.55
2022-10-19T19:43:53.740Z,8.85
2022-10-19T19:46:20.734Z,9.25
2022-10-19T19:48:49.413Z,10.05
2022-10-19T19:51:19.910Z,9.40
2022-10-19T19:53:48.644Z,8.20
2022-10-19T19:56:17.377Z,8.77
2022-10-19T19:58:45.460Z,10.85
2022-10-19T20:01:19.030Z,10.02
2022-10-19T20:03:46.789Z,9.18
2022-10-19T20:06:15.641Z,9.30
2022-10-19T20:08:42.932Z,9.57
2022-10-19T20:11:12.855Z,9.27
2022-10-19T20:13:40.392Z,9.32
2022-10-19T20:16:13.836Z,9.07
2022-10-19T20:18:44.194Z,8.45
2022-10-19T20:21:11.268Z,8.32
2022-10-19T20:23:38.965Z,7.68
2022-10-19T20:26:06.074Z,9.45
2022-10-19T20:28:34.487Z,7.25
2022-10-19T20:31:07.492Z,7.70
2022-10-19T20:33:36.625Z,8.13
2022-10-19T20:36:18.623Z,7.75
2022-10-19T20:38:49.943Z,7.40
2022-10-19T20:41:18.447Z,7.50
2022-10-19T20:43:45.775Z,7.05
2022-10-19T20:46:21.175Z,7.30
2022-10-19T20:48:49.014Z,7.32
2022-10-19T20:51:19.777Z,7.80
2022-10-19T20:53:49.892Z,7.65
2022-10-19T20:56:21.692Z,6.95
2022-10-19T20:58:54.863Z,7.75
2022-10-19T21:01:22.303Z,7.13
2022-10-19T21:03:55.422Z,7.50
2022-10-19T21:06:26.481Z,7.10
2022-10-19T21:08:53.825Z,6.82
2022-10-19T21:11:27.679Z,6.63
2022-10-19T21:21:41.937Z,7.50
2022-10-19T21:24:22.190Z,7.43
2022-10-19T21:29:17.354Z,7.38
2022-10-19T21:31:48.923Z,6.57
2022-10-19T21:34:28.552Z,7.75
2022-10-19T21:36:56.177Z,7.40
2022-10-19T21:39:23.325Z,8.20
2022-10-19T21:41:51.026Z,7.60
2022-10-19T21:44:18.897Z,8.40
2022-10-19T22:16:41.078Z,8.25
2022-10-19T22:49:50.149Z,9.43
2022-10-19T22:52:17.614Z,9.05
2022-10-19T22:54:44.558Z,9.18
2022-10-19T22:57:14.522Z,10.10
2022-10-19T22:59:42.319Z,9.57
2022-10-19T23:02:09.501Z,9.75
